• Join FlightAware (Why Join?)
  • Login
  • US Flag 
09:01PM EDT


 

Airport Tracker/Info


-or-


 

Live Flight TrackerFlight Track Log ✈ UAL773 ✈ 10-Feb-2014 ✈ KEWR - CYEG

Flight Track Log - Related Links

Times and Time Zones

All times are in EST time to prevent confusion due to time zone crossing. See the UAL773 flight status page for this flight to view local times or setup timezone preferences in your user account.

Time Position Orientation Groundspeed Altitude Reporting Facility
EST Latitude Longitude Course Direction KTS MPH feet Rate Location/Type
09:14PM 40.7333 -74.1500 311° West 177 204 1,800  Level New York TRACON
09:15PM 40.7667 -74.2000 311° West 221 254 4,400 2,820 Climbing New York TRACON
09:15PM 40.8167 -74.2667 315° West 250 288 7,200 1,740 Climbing New York TRACON
09:18PM 40.9589 -74.3497 336° Northwest 275 316 10,000 1,680 Climbing Boston Center
09:19PM 41.0817 -74.3569 357° North 359 413 13,000 2,460 Climbing New York Center
09:20PM 41.1833 -74.3564 360° North 362 417 15,300 2,100 Climbing New York Center
09:21PM 41.2983 -74.3575 360° North 379 436 17,400 1,800 Climbing New York Center
09:22PM 41.3894 -74.3667 356° North 390 449 18,800 1,320 Climbing Boston Center
09:24PM 41.4917 -74.5536 306° West 338 389 21,300 1,380 Climbing Boston Center
09:25PM 41.5469 -74.6831 300° West 346 398 23,100 1,500 Climbing Boston Center
09:26PM 41.5969 -74.7975 300° West 355 409 24,400 1,200 Climbing Boston Center
09:27PM 41.6800 -74.8892 321° Northwest 384 442 25,600 1,140 Climbing Boston Center
09:28PM 41.7625 -74.9825 320° Northwest 388 447 26,700 1,260 Climbing Boston Center
09:29PM 41.8503 -75.0786 321° Northwest 398 458 28,200 1,440 Climbing Boston Center
09:30PM 41.9339 -75.1719 320° Northwest 394 453 29,700 1,260 Climbing Boston Center
09:31PM 42.0161 -75.2636 320° Northwest 389 448 30,800 1,080 Climbing Boston Center
09:32PM 42.1039 -75.3489 324° Northwest 391 450 32,000 540 Climbing Boston Center
09:33PM 42.1981 -75.4231 330° Northwest 396 456 32,000  Level Boston Center
09:34PM 42.3000 -75.5050 329° Northwest 396 456 32,000  Level Boston Center
09:35PM 42.3972 -75.5825 330° Northwest 403 464 32,100  Climbing Boston Center
09:36PM 42.4942 -75.6608 329° Northwest 406 467 32,100 -60 Level Boston Center
09:37PM 42.5906 -75.7392 329° Northwest 404 465 32,000 -60 Descending Boston Center
09:38PM 42.6878 -75.8167 330° Northwest 404 465 32,000  Level Boston Center
09:39PM 42.7819 -75.8939 329° Northwest 398 458 32,000 -60 Level Boston Center
09:40PM 42.8758 -75.9706 329° Northwest 393 452 31,900  Descending Boston Center
09:41PM 42.9717 -76.0486 329° Northwest 397 457 32,000  Climbing Boston Center
09:42PM 43.0869 -76.1433 329° Northwest 402 463 32,000  Level Boston Center
09:43PM 43.1828 -76.2239 329° Northwest 403 464 32,000  Level Boston Center
09:44PM 43.2922 -76.3278 325° Northwest 400 460 32,000  Level Boston Center
09:45PM 43.3825 -76.4150 325° Northwest 397 457 32,000  Level Boston Center
09:46PM 43.4750 -76.5006 326° Northwest 400 460 32,000  Level Boston Center
09:47PM 43.5667 -76.5889 325° Northwest 401 461 32,000  Level Boston Center
09:48PM 43.6586 -76.6783 325° Northwest 404 465 32,000  Level Boston Center
09:49PM 43.7167 -76.7333 326° Northwest 400 460 32,000  Level Toronto Center
09:50PM 43.8167 -76.8167 329° Northwest 410 472 32,000  Level Toronto Center
09:51PM 43.9000 -76.9000 324° Northwest 410 472 32,000  Level Toronto Center
09:52PM 44.0000 -76.9833 329° Northwest 410 472 32,000  Level Toronto Center
09:53PM 44.0833 -77.0833 319° Northwest 400 460 32,000  Level Toronto Center
09:54PM 44.1833 -77.1667 329° Northwest 420 483 32,000  Level Toronto Center
09:55PM 44.2667 -77.2500 324° Northwest 410 472 32,000  Level Toronto Center
09:56PM 44.3500 -77.3500 319° Northwest 400 460 32,000  Level Toronto Center
09:57PM 44.4667 -77.4333 333° Northwest 400 460 32,000  Level Toronto Center
09:58PM 44.5500 -77.5333 319° Northwest 420 483 32,000  Level Toronto Center
09:59PM 44.6500 -77.6333 325° Northwest 410 472 32,000  Level Toronto Center
10:00PM 44.7333 -77.7333 320° Northwest 410 472 32,000  Level Toronto Center
10:01PM 44.8000 -77.8500 309° West 410 472 32,000  Level Toronto Center
10:02PM 44.8667 -77.9833 305° West 410 472 32,000  Level Toronto Center
10:03PM 44.9333 -78.1167 305° West 410 472 32,000  Level Toronto Center
10:04PM 45.0000 -78.2333 309° West 410 472 32,000  Level Toronto Center
10:05PM 45.0667 -78.3833 302° West 410 472 32,000  Level Toronto Center
10:06PM 45.1333 -78.5167 305° West 410 472 32,000  Level Toronto Center
10:07PM 45.2000 -78.6333 309° West 410 472 32,000  Level Toronto Center
10:08PM 45.2667 -78.7833 302° West 410 472 32,000  Level Toronto Center
10:09PM 45.3333 -78.9167 305° West 410 472 32,000  Level Toronto Center
10:10PM 45.4000 -79.0667 302° West 410 472 32,000  Level Toronto Center
10:11PM 45.4667 -79.1833 309° West 420 483 32,000  Level Toronto Center
10:12PM 45.5333 -79.3167 306° West 420 483 32,000  Level Toronto Center
10:13PM 45.6000 -79.4667 302° West 420 483 32,000  Level Toronto Center
10:14PM 45.6667 -79.5833 309° West 420 483 32,000  Level Toronto Center
10:15PM 45.7333 -79.7333 303° West 410 472 32,000  Level Toronto Center
10:16PM 45.7833 -79.8667 298° West 410 472 32,000  Level Toronto Center
10:17PM 45.8500 -79.9833 309° West 410 472 32,000  Level Toronto Center
10:18PM 45.9167 -80.1333 303° West 410 472 32,000  Level Toronto Center
10:19PM 45.9833 -80.2833 303° West 420 483 32,000  Level Toronto Center
10:20PM 46.0500 -80.4167 306° West 420 483 32,000  Level Toronto Center
10:21PM 46.1167 -80.5500 306° West 420 483 32,000  Level Toronto Center
10:22PM 46.1833 -80.6833 306° West 420 483 32,000  Level Toronto Center
10:23PM 46.2500 -80.8333 303° West 420 483 32,000  Level Toronto Center
10:24PM 46.3000 -80.9833 296° West 420 483 32,000  Level Toronto Center
10:25PM 46.3667 -81.1333 303° West 420 483 32,000  Level Toronto Center
10:26PM 46.4333 -81.2500 310° West 420 483 32,000  Level Toronto Center
10:27PM 46.5000 -81.4000 303° West 420 483 32,000  Level Toronto Center
10:28PM 46.5667 -81.5500 303° West 420 483 32,000  Level Toronto Center
10:29PM 46.6333 -81.7000 303° West 420 483 32,000  Level Toronto Center
10:30PM 46.6833 -81.8500 296° West 420 483 32,000  Level Toronto Center
10:31PM 46.7500 -81.9667 310° West 420 483 32,000  Level Toronto Center
10:32PM 46.8000 -82.1167 296° West 420 483 32,000  Level Toronto Center
10:33PM 46.8833 -82.2667 309° West 420 483 32,000  Level Toronto Center
10:34PM 46.9333 -82.4167 296° West 420 483 32,000  Level Toronto Center
10:35PM 47.0167 -82.5667 309° West 420 483 32,000  Level Toronto Center
10:36PM 47.0667 -82.6833 302° West 420 483 32,000  Level Toronto Center
10:37PM 47.1167 -82.8333 296° West 420 483 32,000  Level Toronto Center
10:38PM 47.1833 -83.0000 301° West 430 495 32,000  Level Toronto Center
10:39PM 47.2500 -83.1500 303° West 430 495 32,000  Level Toronto Center
10:40PM 47.3167 -83.3000 303° West 430 495 32,000  Level Toronto Center
10:41PM 47.3667 -83.4167 302° West 420 483 32,000  Level Toronto Center
10:42PM 47.4333 -83.6000 298° West 430 495 32,000  Level Toronto Center
10:43PM 47.5000 -83.7333 307° West 430 495 32,000  Level Toronto Center
10:44PM 47.5500 -83.8833 296° West 420 483 32,000  Level Toronto Center
10:45PM 47.6167 -84.0333 303° West 430 495 32,000  Level Toronto Center
10:46PM 47.6833 -84.1833 303° West 420 483 32,000  Level Toronto Center
10:47PM 47.7333 -84.3333 296° West 420 483 32,000  Level Toronto Center
10:48PM 47.8000 -84.5000 301° West 420 483 32,000  Level Toronto Center
10:49PM 47.8667 -84.6167 310° West 420 483 32,000  Level Toronto Center
10:50PM 47.9167 -84.7833 294° West 430 495 32,000  Level Toronto Center
10:51PM 48.0000 -84.9333 310° West 420 483 32,000  Level Toronto Center
10:52PM 48.0500 -85.0667 299° West 420 483 32,000  Level Toronto Center
10:54PM 48.2167 -85.3333 313° West 420 483 32,000  Level Toronto Center
10:55PM 48.2833 -85.4667 307° West 420 483 32,000  Level Toronto Center
10:56PM 48.3667 -85.6000 313° West 420 483 32,000  Level Toronto Center
10:57PM 48.4333 -85.7333 307° West 420 483 32,000  Level Toronto Center
10:58PM 48.5000 -85.9000 301° West 420 483 32,000  Level Toronto Center
10:59PM 48.5833 -86.0333 313° West 420 483 32,000  Level Toronto Center
11:00PM 48.6333 -86.1167 312° West 420 483 32,000  Level Winnipeg Center
11:01PM 48.7167 -86.2500 313° West 420 483 32,000  Level Winnipeg Center
11:02PM 48.7500 -86.4000 289° West 420 483 32,000  Level Winnipeg Center
11:03PM 48.8000 -86.5667 295° West 420 483 32,000  Level Winnipeg Center
11:04PM 48.8333 -86.7333 287° West 430 495 32,000  Level Winnipeg Center
11:05PM 48.8833 -86.9000 295° West 430 495 32,000  Level Winnipeg Center
11:06PM 48.9333 -87.0667 295° West 420 483 32,000  Level Winnipeg Center
11:07PM 48.9833 -87.2333 295° West 420 483 32,000  Level Winnipeg Center
11:08PM 49.0167 -87.3833 289° West 420 483 32,000  Level Winnipeg Center
11:09PM 49.0667 -87.5500 295° West 420 483 32,000  Level Winnipeg Center
11:10PM 49.1167 -87.7333 293° West 420 483 32,000  Level Winnipeg Center
11:11PM 49.1667 -87.8667 300° West 410 472 32,000  Level Winnipeg Center
11:12PM 49.1833 -88.0500 278° West 410 472 32,000  Level Winnipeg Center
11:13PM 49.2333 -88.2167 295° West 410 472 32,000  Level Winnipeg Center
11:14PM 49.2833 -88.3833 295° West 410 472 32,000  Level Winnipeg Center
11:15PM 49.3333 -88.5333 297° West 410 472 32,000  Level Winnipeg Center
11:16PM 49.3500 -88.7167 278° West 410 472 32,000  Level Winnipeg Center
11:17PM 49.4000 -88.8667 297° West 410 472 32,000  Level Winnipeg Center
11:18PM 49.4500 -89.0333 295° West 410 472 32,000  Level Winnipeg Center
11:19PM 49.4833 -89.1833 289° West 400 460 32,000  Level Winnipeg Center
11:20PM 49.5167 -89.3500 287° West 400 460 32,000  Level Winnipeg Center
11:21PM 49.5667 -89.5333 293° West 410 472 32,000  Level Winnipeg Center
11:22PM 49.6000 -89.6833 289° West 410 472 32,000  Level Winnipeg Center
11:23PM 49.6333 -89.8333 289° West 410 472 32,000  Level Winnipeg Center
11:24PM 49.6833 -90.0000 295° West 400 460 32,000  Level Winnipeg Center
11:25PM 49.7167 -90.1500 289° West 400 460 32,000  Level Winnipeg Center
11:26PM 49.7500 -90.3333 286° West 390 449 32,000  Level Winnipeg Center
11:27PM 49.8000 -90.4833 297° West 390 449 32,000  Level Winnipeg Center
11:28PM 49.8333 -90.6333 289° West 390 449 32,000  Level Winnipeg Center
11:29PM 49.8667 -90.7833 289° West 380 437 32,000  Level Winnipeg Center
11:30PM 49.9000 -90.9333 289° West 390 449 32,000  Level Winnipeg Center
11:31PM 49.9333 -91.1167 286° West 390 449 32,000  Level Winnipeg Center
11:32PM 49.9667 -91.2667 289° West 390 449 32,000  Level Winnipeg Center
11:33PM 50.0167 -91.4500 293° West 390 449 32,000  Level Winnipeg Center
11:34PM 50.0333 -91.6000 280° West 390 449 32,000  Level Winnipeg Center
11:35PM 50.0833 -91.7500 297° West 390 449 32,000  Level Winnipeg Center
11:36PM 50.1000 -91.9000 280° West 390 449 32,000  Level Winnipeg Center
11:37PM 50.1167 -92.0833 278° West 390 449 32,000  Level Winnipeg Center
11:38PM 50.1500 -92.2333 289° West 390 449 32,000  Level Winnipeg Center
11:39PM 50.1667 -92.4167 278° West 390 449 32,000  Level Winnipeg Center
11:40PM 50.2000 -92.5667 289° West 390 449 32,000  Level Winnipeg Center
11:41PM 50.2167 -92.7333 279° West 390 449 32,000  Level Winnipeg Center
11:42PM 50.2333 -92.9167 278° West 390 449 32,000  Level Winnipeg Center
11:43PM 50.2667 -93.0667 289° West 390 449 32,000  Level Winnipeg Center
11:44PM 50.2833 -93.2500 278° West 390 449 32,000  Level Winnipeg Center
11:45PM 50.3000 -93.4000 280° West 390 449 32,000  Level Winnipeg Center
11:46PM 50.3333 -93.5833 286° West 390 449 32,000  Level Winnipeg Center
11:47PM 50.3500 -93.7333 280° West 390 449 32,000  Level Winnipeg Center
11:48PM 50.3667 -93.9167 278° West 390 449 32,000  Level Winnipeg Center
11:49PM 50.4000 -94.0833 287° West 390 449 32,000  Level Winnipeg Center
11:50PM 50.4167 -94.2333 280° West 390 449 32,000  Level Winnipeg Center
11:51PM 50.4333 -94.4167 278° West 390 449 32,000  Level Winnipeg Center
11:52PM 50.4500 -94.5667 280° West 390 449 32,000  Level Winnipeg Center
11:53PM 50.4833 -94.7500 286° West 390 449 32,000  Level Winnipeg Center
11:54PM 50.5000 -94.9167 279° West 390 449 32,000  Level Winnipeg Center
11:55PM 50.5167 -95.1000 278° West 390 449 32,000  Level Winnipeg Center
11:56PM 50.5333 -95.2500 280° West 390 449 32,000  Level Winnipeg Center
11:57PM 50.5500 -95.4167 279° West 390 449 32,000  Level Winnipeg Center
11:58PM 50.5667 -95.6000 278° West 390 449 32,000  Level Winnipeg Center
11:59PM 50.6000 -95.7500 289° West 390 449 32,000  Level Winnipeg Center
12:00AM 50.6167 -95.9333 278° West 390 449 32,000  Level Winnipeg Center
12:01AM 50.6333 -96.1000 279° West 390 449 32,000  Level Winnipeg Center
12:02AM 50.6500 -96.2833 278° West 390 449 32,000  Level Winnipeg Center
12:03AM 50.6667 -96.4333 280° West 390 449 32,000  Level Winnipeg Center
12:04AM 50.6833 -96.6167 278° West 390 449 32,000  Level Winnipeg Center
12:05AM 50.7000 -96.7833 279° West 400 460 32,000  Level Winnipeg Center
12:06AM 50.7167 -96.9667 278° West 400 460 32,000  Level Winnipeg Center
12:07AM 50.7500 -97.1167 289° West 390 449 32,000  Level Winnipeg Center
12:08AM 50.7500 -97.3167 270° West 390 449 32,000  Level Winnipeg Center
12:09AM 50.7833 -97.4667 289° West 390 449 32,000  Level Winnipeg Center
12:10AM 50.8000 -97.6500 278° West 390 449 32,000  Level Winnipeg Center
12:11AM 50.8167 -97.8167 279° West 390 449 32,000  Level Winnipeg Center
12:12AM 50.8333 -98.0000 278° West 400 460 32,000  Level Winnipeg Center
12:13AM 50.8500 -98.1500 280° West 390 449 32,000  Level Winnipeg Center
12:14AM 50.8500 -98.3500 270° West 400 460 32,000  Level Winnipeg Center
12:15AM 50.8667 -98.5000 280° West 400 460 32,000  Level Winnipeg Center
12:16AM 50.8833 -98.6833 278° West 400 460 32,000  Level Winnipeg Center
12:17AM 50.9000 -98.8500 279° West 390 449 32,000  Level Winnipeg Center
12:18AM 50.9167 -99.0333 278° West 390 449 32,000  Level Winnipeg Center
12:19AM 50.9333 -99.2000 279° West 390 449 32,000  Level Winnipeg Center
12:20AM 50.9500 -99.3833 278° West 400 460 32,000  Level Winnipeg Center
12:21AM 50.9500 -99.5500 270° West 400 460 32,000  Level Winnipeg Center
12:22AM 50.9667 -99.7333 278° West 390 449 32,000  Level Winnipeg Center
12:23AM 50.9833 -99.8833 280° West 390 449 32,000  Level Winnipeg Center
12:24AM 51.0000 -100.0833 278° West 390 449 32,000  Level Winnipeg Center
12:25AM 51.0333 -100.2333 290° West 390 449 32,000  Level Winnipeg Center
12:26AM 51.0667 -100.4000 288° West 390 449 32,000  Level Winnipeg Center
12:27AM 51.1000 -100.5667 288° West 390 449 32,000  Level Winnipeg Center
12:28AM 51.1167 -100.7333 279° West 390 449 32,000  Level Winnipeg Center
12:29AM 51.1667 -100.8833 298° West 390 449 32,000  Level Winnipeg Center
12:30AM 51.2000 -101.0500 288° West 390 449 32,000  Level Winnipeg Center
12:31AM 51.2167 -101.2167 279° West 390 449 32,000  Level Winnipeg Center
12:32AM 51.2667 -101.3833 296° West 390 449 32,000  Level Winnipeg Center
12:33AM 51.3000 -101.5500 288° West 390 449 32,000  Level Winnipeg Center
12:34AM 51.3167 -101.7000 280° West 380 437 32,000  Level Winnipeg Center
12:35AM 51.3667 -101.8667 296° West 380 437 32,000  Level Winnipeg Center
12:36AM 51.4000 -102.0333 288° West 370 426 32,000  Level Winnipeg Center
12:37AM 51.4167 -102.2000 279° West 370 426 32,000  Level Winnipeg Center
12:38AM 51.4500 -102.3667 288° West 380 437 32,000  Level Winnipeg Center
12:39AM 51.4667 -102.5000 281° West 380 437 32,000  Level Winnipeg Center
12:40AM 51.5167 -102.7000 292° West 370 426 32,000  Level Winnipeg Center
12:41AM 51.5333 -102.8333 281° West 370 426 32,000  Level Winnipeg Center
12:42AM 51.5667 -103.0000 288° West 370 426 32,000  Level Winnipeg Center
12:43AM 51.5833 -103.1667 279° West 370 426 32,000  Level Winnipeg Center
12:44AM 51.6333 -103.3333 296° West 370 426 32,000  Level Winnipeg Center
12:45AM 51.6500 -103.4667 281° West 370 426 32,000  Level Winnipeg Center
12:46AM 51.6833 -103.6333 288° West 370 426 32,000  Level Winnipeg Center
12:47AM 51.7000 -103.8000 279° West 370 426 32,000  Level Winnipeg Center
12:48AM 51.7333 -103.9667 288° West 370 426 32,000  Level Winnipeg Center
12:49AM 51.7500 -104.1333 279° West 370 426 32,000  Level Winnipeg Center
12:50AM 51.8000 -104.2833 298° West 370 426 32,000  Level Winnipeg Center
12:51AM 51.8167 -104.4500 279° West 370 426 32,000  Level Winnipeg Center
12:52AM 51.8333 -104.6167 279° West 370 426 32,000  Level Winnipeg Center
12:53AM 51.8667 -104.7500 292° West 370 426 32,000  Level Winnipeg Center
12:54AM 51.8833 -104.9500 278° West 370 426 32,000  Level Winnipeg Center
12:55AM 51.9167 -105.0833 292° West 370 426 32,000  Level Winnipeg Center
12:56AM 51.9500 -105.2667 287° West 370 426 32,000  Level Winnipeg Center
12:57AM 51.9667 -105.4333 279° West 370 426 32,000  Level Winnipeg Center
12:58AM 52.0000 -105.5667 292° West 370 426 32,000  Level Winnipeg Center
12:59AM 52.0167 -105.7333 279° West 370 426 32,000  Level Winnipeg Center
01:00AM 52.0333 -105.9000 279° West 370 426 32,000  Level Winnipeg Center
01:01AM 52.0667 -106.0833 287° West 370 426 32,000  Level Winnipeg Center
01:02AM 52.0833 -106.2500 279° West 370 426 32,000  Level Winnipeg Center
01:03AM 52.1167 -106.3833 292° West 380 437 32,000  Level Winnipeg Center
01:04AM 52.1333 -106.5500 279° West 380 437 32,000  Level Winnipeg Center
01:05AM 52.1667 -106.7333 287° West 370 426 32,000  Level Winnipeg Center
01:06AM 52.2000 -106.8667 292° West 350 403 32,000  Level Winnipeg Center
01:07AM 52.2167 -107.0667 278° West 380 437 32,000  Level Winnipeg Center
01:08AM 52.2500 -107.2167 290° West 370 426 32,000  Level Winnipeg Center
01:09AM 52.2667 -107.3833 279° West 370 426 32,000  Level Winnipeg Center
01:10AM 52.3000 -107.5333 290° West 370 426 32,000  Level Winnipeg Center
01:11AM 52.3167 -107.7000 279° West 370 426 32,000  Level Winnipeg Center
01:12AM 52.3333 -107.7833 288° West 370 426 32,000  Level Edmonton Center
01:13AM 52.3667 -107.9333 290° West 370 426 32,000  Level Edmonton Center
01:14AM 52.4000 -108.1000 288° West 370 426 32,000  Level Edmonton Center
01:15AM 52.4000 -108.2667 270° West 370 426 32,000  Level Edmonton Center
01:16AM 52.4333 -108.4333 288° West 370 426 32,000  Level Edmonton Center
01:17AM 52.4667 -108.6000 288° West 370 426 32,000  Level Edmonton Center
01:18AM 52.4833 -108.7667 279° West 360 414 32,000  Level Edmonton Center
01:19AM 52.5167 -108.9167 290° West 360 414 32,000  Level Edmonton Center
01:20AM 52.5333 -109.0833 279° West 370 426 32,000  Level Edmonton Center
01:21AM 52.5667 -109.2500 288° West 370 426 32,000  Level Edmonton Center
01:22AM 52.5833 -109.4167 279° West 380 437 32,000  Level Edmonton Center
01:23AM 52.6167 -109.5833 288° West 380 437 32,000  Level Edmonton Center
01:24AM 52.6333 -109.7500 279° West 380 437 32,000  Level Edmonton Center
01:25AM 52.6667 -109.9500 285° West 380 437 32,000  Level Edmonton Center
01:26AM 52.7000 -110.1000 290° West 380 437 32,000  Level Edmonton Center
01:27AM 52.7167 -110.2667 279° West 390 449 32,000  Level Edmonton Center
01:28AM 52.7500 -110.4667 285° West 390 449 32,000  Level Edmonton Center
01:29AM 52.7667 -110.6333 279° West 390 449 32,000 -720 Level Edmonton Center
01:30AM 52.8000 -110.8167 287° West 390 449 30,600 -1,800 Descending Edmonton Center
01:31AM 52.8167 -110.9833 279° West 390 449 28,400 -2,040 Descending Edmonton Center
01:32AM 52.8333 -111.1500 279° West 390 449 26,600 -1,920 Descending Edmonton Center
01:33AM 52.8500 -111.3500 278° West 390 449 24,600 -1,920 Descending Edmonton Center
01:34AM 52.8667 -111.5333 279° West 390 449 22,800 -1,920 Descending Edmonton Center
01:35AM 52.9000 -111.7000 288° West 380 437 20,800 -1,920 Descending Edmonton Center
01:36AM 52.9167 -111.8500 280° West 360 414 19,000 -1,860 Descending Edmonton Center
01:37AM 52.9500 -112.0167 288° West 350 403 17,100 -1,980 Descending Edmonton Center
01:38AM 52.9500 -112.1500 270° West 350 403 15,100 -1,920 Descending Edmonton Center
01:39AM 52.9833 -112.3000 290° West 340 391 13,300 -1,920 Descending Edmonton Center
01:40AM 53.0000 -112.4833 279° West 320 368 11,300 -1,380 Descending Edmonton Center
01:41AM 53.0167 -112.5833 286° West 300 345 10,600 -840 Descending Edmonton Center
01:42AM 53.0167 -112.7000 270° West 240 276 9,700 -1,140 Descending Edmonton Center
01:43AM 53.0500 -112.8167 295° West 230 265 8,400 -1,020 Descending Edmonton Center
01:44AM 53.0500 -112.9167 270° West 230 265 7,700 -720 Descending Edmonton Center
01:45AM 53.0667 -113.0333 283° West 230 265 7,000 -720 Descending Edmonton Center
01:46AM 53.0667 -113.1333 270° West 250 288 6,300 -600 Descending Edmonton Center
01:47AM 53.0833 -113.2500 283° West 250 288 5,800 -540 Descending Edmonton Center
01:48AM 53.1167 -113.3667 295° West 250 288 5,300 -420 Descending Edmonton Center
01:49AM 53.1167 -113.4833 270° West 250 288 5,000 -180 Descending Edmonton Center
01:50AM 53.1333 -113.6000 283° West 250 288 5,000 -60 Level Edmonton Center
01:51AM 53.1500 -113.7000 286° West 210 242 4,900 -360 Descending Edmonton Center
01:52AM 53.2000 -113.7000 360° North 170 196 4,300 -600 Descending Edmonton Center
01:53AM 53.2333 -113.6833 17° North 130 150 3,700 -660 Descending Edmonton Center
01:54AM 53.2500 -113.6667 31° Northeast 120 138 3,000 -720 Descending Edmonton Center
01:55AM 53.3000 -113.6167 31° Northeast 120 138 2,300 -720 Descending Edmonton Center